createdAt,value
2018-11-02T00:02:28.420Z,101102.00
2018-11-02T00:04:57.409Z,101111.00
2018-11-02T00:07:26.244Z,101132.00
2018-11-02T00:09:55.066Z,101138.00
2018-11-02T00:12:24.046Z,101147.00
2018-11-02T00:14:52.814Z,101169.00
2018-11-02T00:17:21.666Z,101169.00
2018-11-02T00:19:50.559Z,101171.00
2018-11-02T00:22:19.370Z,101157.00
2018-11-02T00:24:48.218Z,101146.00
2018-11-02T00:27:17.454Z,101148.00
2018-11-02T00:29:46.262Z,101142.00
2018-11-02T00:32:15.664Z,101135.00
2018-11-02T00:34:44.555Z,101147.00
2018-11-02T00:37:13.360Z,101152.00
2018-11-02T00:39:42.170Z,101160.00
2018-11-02T00:42:11.111Z,101153.00
2018-11-02T00:44:40.020Z,101150.00
2018-11-02T00:47:08.850Z,101149.00
2018-11-02T00:49:37.999Z,101151.00
2018-11-02T00:52:06.849Z,101148.00
2018-11-02T00:54:35.683Z,101147.00
2018-11-02T00:57:04.675Z,101136.00
2018-11-02T00:59:33.513Z,101141.00
2018-11-02T01:02:02.387Z,101144.00
2018-11-02T01:04:31.191Z,101150.00
2018-11-02T01:07:00.011Z,101149.00
2018-11-02T01:09:28.838Z,101149.00
2018-11-02T01:11:57.845Z,101158.00
2018-11-02T01:14:26.663Z,101151.00
2018-11-02T01:16:55.495Z,101164.00
2018-11-02T01:19:29.518Z,101166.00
2018-11-02T01:21:58.366Z,101172.00
2018-11-02T01:24:27.174Z,101161.00
2018-11-02T01:26:56.381Z,101149.00
2018-11-02T01:29:25.212Z,101162.00
2018-11-02T01:31:54.030Z,101164.00
2018-11-02T01:34:23.443Z,101177.00
2018-11-02T01:36:52.299Z,101185.00
2018-11-02T01:39:21.210Z,101202.00
2018-11-02T01:41:50.018Z,101199.00
2018-11-02T01:44:18.822Z,101196.00
2018-11-02T01:46:47.658Z,101207.00
2018-11-02T01:49:16.474Z,101210.00
2018-11-02T01:51:45.340Z,101216.00
2018-11-02T01:54:14.307Z,101206.00
2018-11-02T01:56:43.241Z,101190.00
2018-11-02T01:59:12.071Z,101193.00
2018-11-02T02:01:40.863Z,101204.00
2018-11-02T02:04:09.672Z,101202.00
2018-11-02T02:06:38.591Z,101209.00
2018-11-02T02:09:10.394Z,101218.00
2018-11-02T02:11:39.218Z,101213.00
2018-11-02T02:14:08.368Z,101208.00
2018-11-02T02:16:37.651Z,101223.00
2018-11-02T02:19:07.058Z,101211.00
2018-11-02T02:21:35.951Z,101214.00
2018-11-02T02:24:04.864Z,101216.00
2018-11-02T02:26:33.663Z,101206.00
2018-11-02T02:29:02.463Z,101215.00
2018-11-02T02:31:31.300Z,101213.00
2018-11-02T02:34:00.110Z,101219.00
2018-11-02T02:36:29.249Z,101224.00
2018-11-02T02:38:58.294Z,101232.00
2018-11-02T02:41:27.105Z,101234.00
2018-11-02T02:43:55.910Z,101243.00
2018-11-02T02:46:24.735Z,101245.00
2018-11-02T02:48:53.558Z,101245.00
2018-11-02T02:51:22.382Z,101259.00
2018-11-02T02:53:51.194Z,101262.00
2018-11-02T02:56:20.010Z,101265.00
2018-11-02T02:58:48.834Z,101261.00
2018-11-02T03:01:18.007Z,101268.00
2018-11-02T03:03:46.905Z,101263.00
2018-11-02T03:06:15.713Z,101268.00
2018-11-02T03:08:44.599Z,101267.00
2018-11-02T03:11:13.635Z,101275.00
2018-11-02T03:13:42.240Z,101282.00
2018-11-02T03:16:11.065Z,101277.00
2018-11-02T03:18:39.905Z,101285.00
2018-11-02T03:21:08.780Z,101274.00
2018-11-02T03:23:38.090Z,101283.00
2018-11-02T03:26:06.903Z,101284.00
2018-11-02T03:28:35.795Z,101284.00
2018-11-02T03:31:04.706Z,101286.00
2018-11-02T03:33:33.576Z,101285.00
2018-11-02T03:36:02.542Z,101294.00
2018-11-02T03:38:31.678Z,101281.00
2018-11-02T03:41:00.647Z,101279.00
2018-11-02T03:43:29.468Z,101278.00
2018-11-02T03:45:58.623Z,101290.00
2018-11-02T03:48:27.450Z,101290.00
2018-11-02T03:50:56.734Z,101292.00
2018-11-02T03:53:25.495Z,101288.00
2018-11-02T03:55:54.340Z,101296.00
2018-11-02T03:58:23.207Z,101296.00
2018-11-02T04:00:52.062Z,101303.00
2018-11-02T04:03:20.930Z,101295.00
2018-11-02T04:05:49.774Z,101303.00
2018-11-02T04:08:18.708Z,101306.00
2018-11-02T04:10:47.591Z,101304.00
2018-11-02T04:13:16.396Z,101311.00
2018-11-02T04:15:45.224Z,101304.00
2018-11-02T04:18:14.045Z,101311.00
2018-11-02T04:20:42.881Z,101314.00
2018-11-02T04:23:11.726Z,101318.00
2018-11-02T04:25:40.582Z,101320.00
2018-11-02T04:28:09.415Z,101325.00
2018-11-02T04:30:38.715Z,101328.00
2018-11-02T04:33:07.520Z,101324.00
2018-11-02T04:35:36.343Z,101332.00
2018-11-02T04:38:05.408Z,101326.00
2018-11-02T04:40:34.595Z,101340.00
2018-11-02T04:43:03.404Z,101338.00
2018-11-02T04:45:38.342Z,101341.00
2018-11-02T04:48:08.686Z,101334.00
2018-11-02T04:50:37.544Z,101347.00
2018-11-02T04:53:07.161Z,101348.00
2018-11-02T04:55:35.993Z,101350.00
2018-11-02T04:58:04.922Z,101361.00
2018-11-02T05:00:33.754Z,101356.00
2018-11-02T05:03:03.259Z,101350.00
2018-11-02T05:05:32.070Z,101362.00
2018-11-02T05:08:00.923Z,101373.00
2018-11-02T05:10:29.722Z,101379.00
2018-11-02T05:12:58.517Z,101377.00
2018-11-02T05:15:27.458Z,101375.00
2018-11-02T05:17:56.291Z,101370.00
2018-11-02T05:20:25.115Z,101360.00
2018-11-02T05:22:53.930Z,101366.00
2018-11-02T05:25:22.743Z,101378.00
2018-11-02T05:27:51.537Z,101396.00
2018-11-02T05:30:20.335Z,101402.00
2018-11-02T05:32:49.144Z,101407.00
2018-11-02T05:35:18.054Z,101404.00
2018-11-02T05:37:46.996Z,101404.00
2018-11-02T05:40:15.797Z,101407.00
2018-11-02T05:42:45.038Z,101410.00
2018-11-02T05:45:13.888Z,101423.00
2018-11-02T05:47:42.669Z,101422.00
2018-11-02T05:50:11.497Z,101425.00
2018-11-02T05:52:40.310Z,101422.00
2018-11-02T05:55:09.784Z,101419.00
2018-11-02T05:57:38.909Z,101422.00
2018-11-02T06:00:09.977Z,101434.00
2018-11-02T06:02:38.755Z,101444.00
2018-11-02T06:05:08.678Z,101451.00
2018-11-02T06:07:38.000Z,101439.00
2018-11-02T06:10:06.895Z,101447.00
2018-11-02T06:12:35.693Z,101437.00
2018-11-02T06:15:04.542Z,101436.00
2018-11-02T06:17:33.405Z,101440.00
2018-11-02T06:20:02.222Z,101435.00
2018-11-02T06:22:31.386Z,101449.00
2018-11-02T06:25:00.190Z,101441.00
2018-11-02T06:27:29.025Z,101451.00
2018-11-02T06:29:57.862Z,101463.00
2018-11-02T06:32:26.997Z,101470.00
2018-11-02T06:34:55.788Z,101481.00
2018-11-02T06:37:24.606Z,101482.00
2018-11-02T06:39:53.617Z,101480.00
2018-11-02T06:42:22.477Z,101489.00
2018-11-02T06:44:52.132Z,101499.00
2018-11-02T06:47:20.950Z,101508.00
2018-11-02T06:49:49.773Z,101505.00
2018-11-02T06:52:18.602Z,101509.00
2018-11-02T06:54:47.409Z,101523.00
2018-11-02T06:57:16.241Z,101523.00
2018-11-02T06:59:45.331Z,101531.00
2018-11-02T07:02:13.962Z,101538.00
2018-11-02T07:04:42.775Z,101536.00
2018-11-02T07:07:11.750Z,101550.00
2018-11-02T07:09:40.580Z,101539.00
2018-11-02T07:12:09.374Z,101536.00
2018-11-02T07:14:38.186Z,101538.00
2018-11-02T07:17:07.038Z,101547.00
2018-11-02T07:19:35.856Z,101553.00
2018-11-02T07:22:04.994Z,101550.00
2018-11-02T07:24:33.799Z,101545.00
2018-11-02T07:27:02.635Z,101554.00
2018-11-02T07:29:31.558Z,101546.00
2018-11-02T07:32:00.404Z,101552.00
2018-11-02T07:34:29.393Z,101561.00
2018-11-02T07:36:58.064Z,101566.00
2018-11-02T07:39:26.855Z,101567.00
2018-11-02T07:41:55.671Z,101578.00
2018-11-02T07:44:24.498Z,101580.00
2018-11-02T07:46:53.578Z,101592.00
2018-11-02T07:49:22.516Z,101578.00
2018-11-02T07:51:51.381Z,101585.00
2018-11-02T07:54:20.187Z,101594.00
2018-11-02T07:56:49.140Z,101595.00
2018-11-02T07:59:17.996Z,101621.00
2018-11-02T08:01:47.509Z,101607.00
2018-11-02T08:04:16.659Z,101608.00
2018-11-02T08:06:45.520Z,101621.00
2018-11-02T08:09:14.957Z,101634.00
2018-11-02T08:11:44.322Z,101642.00
2018-11-02T08:14:13.431Z,101638.00
2018-11-02T08:16:42.322Z,101637.00
2018-11-02T08:19:11.249Z,101629.00
2018-11-02T08:21:40.013Z,101638.00
2018-11-02T08:24:09.685Z,101648.00
2018-11-02T08:26:38.518Z,101657.00
2018-11-02T08:29:07.410Z,101651.00
2018-11-02T08:31:36.235Z,101655.00
2018-11-02T08:34:05.078Z,101658.00
2018-11-02T08:36:34.291Z,101646.00
2018-11-02T08:39:03.138Z,101649.00
2018-11-02T08:41:31.954Z,101659.00
2018-11-02T08:44:01.014Z,101665.00
2018-11-02T08:46:29.983Z,101659.00
2018-11-02T08:48:59.143Z,101663.00
2018-11-02T08:51:27.995Z,101672.00
2018-11-02T08:53:56.793Z,101674.00
2018-11-02T08:56:25.606Z,101661.00
2018-11-02T08:58:54.917Z,101665.00
2018-11-02T09:01:23.762Z,101672.00
2018-11-02T09:03:52.585Z,101663.00
2018-11-02T09:06:21.398Z,101672.00
2018-11-02T09:08:50.261Z,101670.00
2018-11-02T09:11:19.105Z,101673.00
2018-11-02T09:13:47.902Z,101668.00
2018-11-02T09:16:16.734Z,101682.00
2018-11-02T09:18:45.538Z,101672.00
2018-11-02T09:21:14.767Z,101679.00
2018-11-02T09:23:43.581Z,101687.00
2018-11-02T09:26:12.398Z,101690.00
2018-11-02T09:28:41.231Z,101697.00
2018-11-02T09:31:10.038Z,101714.00
2018-11-02T09:33:38.872Z,101715.00
2018-11-02T09:36:07.700Z,101718.00
2018-11-02T09:38:36.505Z,101710.00
2018-11-02T09:41:05.634Z,101724.00
2018-11-02T09:43:34.836Z,101724.00
2018-11-02T09:46:03.665Z,101726.00
2018-11-02T09:48:32.521Z,101733.00
2018-11-02T09:51:01.945Z,101726.00
2018-11-02T09:53:31.029Z,101719.00
2018-11-02T09:55:59.835Z,101722.00
2018-11-02T09:58:28.670Z,101725.00
2018-11-02T10:00:57.550Z,101719.00
2018-11-02T10:03:26.337Z,101719.00
2018-11-02T10:05:55.388Z,101704.00
2018-11-02T10:08:24.229Z,101700.00
2018-11-02T10:10:53.005Z,101705.00
2018-11-02T10:13:21.836Z,101709.00
2018-11-02T10:15:50.637Z,101721.00
2018-11-02T10:18:19.465Z,101721.00
2018-11-02T10:20:48.413Z,101718.00
2018-11-02T10:23:17.235Z,101722.00
2018-11-02T10:25:46.070Z,101734.00
2018-11-02T10:28:15.419Z,101734.00
2018-11-02T10:30:44.111Z,101740.00
2018-11-02T10:33:12.926Z,101727.00
2018-11-02T10:35:42.144Z,101737.00
2018-11-02T10:38:10.906Z,101728.00
2018-11-02T10:40:42.527Z,101731.00
2018-11-02T10:43:14.402Z,101740.00
2018-11-02T10:45:45.622Z,101740.00
2018-11-02T10:48:14.429Z,101745.00
2018-11-02T10:50:43.910Z,101753.00
2018-11-02T10:53:13.117Z,101762.00
2018-11-02T10:55:41.930Z,101751.00
2018-11-02T10:58:10.761Z,101762.00
2018-11-02T11:00:45.129Z,101760.00
2018-11-02T11:03:13.827Z,101759.00
2018-11-02T11:05:42.683Z,101762.00
2018-11-02T11:08:11.550Z,101776.00
2018-11-02T11:10:40.775Z,101771.00
2018-11-02T11:13:10.003Z,101780.00
2018-11-02T11:15:38.520Z,101783.00
2018-11-02T11:18:07.388Z,101778.00
2018-11-02T11:20:36.198Z,101763.00
2018-11-02T11:23:05.237Z,101770.00
2018-11-02T11:25:34.106Z,101769.00
2018-11-02T11:28:02.893Z,101780.00
2018-11-02T11:30:31.710Z,101789.00
2018-11-02T11:33:00.996Z,101784.00
2018-11-02T11:35:29.812Z,101771.00
2018-11-02T11:37:58.667Z,101780.00
2018-11-02T11:40:27.537Z,101772.00
2018-11-02T11:42:56.359Z,101776.00
2018-11-02T11:45:25.174Z,101784.00
2018-11-02T11:47:54.047Z,101780.00
2018-11-02T11:50:24.111Z,101784.00
2018-11-02T11:52:54.067Z,101782.00
2018-11-02T11:55:23.790Z,101789.00
2018-11-02T11:57:52.597Z,101806.00
2018-11-02T12:00:22.671Z,101789.00
2018-11-02T12:02:52.181Z,101805.00
2018-11-02T12:05:22.305Z,101806.00
2018-11-02T12:07:51.134Z,101801.00
2018-11-02T12:10:23.259Z,101797.00
2018-11-02T12:12:52.117Z,101804.00
2018-11-02T12:15:22.072Z,101800.00
2018-11-02T12:17:51.473Z,101801.00
2018-11-02T12:20:28.402Z,101798.00
2018-11-02T12:23:00.290Z,101809.00
2018-11-02T12:25:29.190Z,101809.00
2018-11-02T12:27:58.034Z,101806.00
2018-11-02T12:30:26.900Z,101798.00
2018-11-02T12:32:55.748Z,101802.00
2018-11-02T12:35:24.862Z,101805.00
2018-11-02T12:37:53.958Z,101786.00
2018-11-02T12:40:23.705Z,101796.00
2018-11-02T12:42:53.388Z,101799.00
2018-11-02T12:45:22.798Z,101798.00
2018-11-02T12:47:51.675Z,101809.00
2018-11-02T12:50:23.414Z,101800.00
2018-11-02T12:52:53.466Z,101813.00
2018-11-02T12:55:22.699Z,101815.00
2018-11-02T12:57:52.668Z,101809.00
2018-11-02T13:00:23.629Z,101818.00
2018-11-02T13:02:53.130Z,101822.00
2018-11-02T13:05:21.935Z,101823.00
2018-11-02T13:07:50.842Z,101833.00
2018-11-02T13:10:20.858Z,101824.00
2018-11-02T13:12:49.687Z,101830.00
2018-11-02T13:15:19.926Z,101824.00
2018-11-02T13:17:49.761Z,101828.00
2018-11-02T13:20:18.770Z,101835.00
2018-11-02T13:22:48.543Z,101843.00
2018-11-02T13:25:18.579Z,101832.00
2018-11-02T13:27:48.075Z,101845.00
2018-11-02T13:30:17.069Z,101849.00
2018-11-02T13:32:45.781Z,101844.00
2018-11-02T13:35:16.178Z,101850.00
2018-11-02T13:37:45.586Z,101853.00
2018-11-02T13:40:15.932Z,101875.00
2018-11-02T13:42:44.866Z,101873.00
2018-11-02T13:45:15.017Z,101871.00
2018-11-02T13:47:44.223Z,101883.00
2018-11-02T13:50:13.469Z,101882.00
2018-11-02T13:52:42.803Z,101897.00
2018-11-02T13:55:12.324Z,101890.00
2018-11-02T13:57:41.419Z,101886.00
2018-11-02T14:00:15.436Z,101879.00
2018-11-02T14:02:44.290Z,101881.00
2018-11-02T14:05:14.330Z,101862.00
2018-11-02T14:07:43.440Z,101861.00
2018-11-02T14:10:12.848Z,101860.00
2018-11-02T14:12:41.970Z,101863.00
2018-11-02T14:15:12.320Z,101871.00
2018-11-02T14:17:41.646Z,101864.00
2018-11-02T14:20:11.893Z,101861.00
2018-11-02T14:22:41.177Z,101875.00
2018-11-02T14:25:12.546Z,101865.00
2018-11-02T14:27:41.358Z,101898.00
2018-11-02T14:30:12.325Z,101898.00
2018-11-02T14:32:41.238Z,101898.00
2018-11-02T14:35:10.034Z,101897.00
2018-11-02T14:37:38.845Z,101891.00
2018-11-02T14:40:09.486Z,101907.00
2018-11-02T14:42:39.473Z,101895.00
2018-11-02T14:45:11.756Z,101896.00
2018-11-02T14:47:40.604Z,101888.00
2018-11-02T14:50:10.228Z,101904.00
2018-11-02T14:52:39.339Z,101898.00
2018-11-02T14:55:09.212Z,101905.00
2018-11-02T14:57:38.106Z,101912.00
2018-11-02T15:00:10.773Z,101928.00
2018-11-02T15:02:41.264Z,101912.00
2018-11-02T15:05:11.395Z,101921.00
2018-11-02T15:07:40.672Z,101924.00
2018-11-02T15:10:09.590Z,101928.00
2018-11-02T15:12:38.974Z,101920.00
2018-11-02T15:15:09.225Z,101930.00
2018-11-02T15:17:38.290Z,101938.00
2018-11-02T15:20:11.633Z,101949.00
2018-11-02T15:22:40.510Z,101948.00
2018-11-02T15:25:09.779Z,101949.00
2018-11-02T15:27:38.647Z,101947.00
2018-11-02T15:30:11.247Z,101951.00
2018-11-02T15:32:40.099Z,101961.00
2018-11-02T15:35:09.646Z,101966.00
2018-11-02T15:37:38.486Z,101961.00
2018-11-02T15:40:10.286Z,101964.00
2018-11-02T15:42:39.127Z,101976.00
2018-11-02T15:45:11.280Z,101983.00
2018-11-02T15:47:40.103Z,101981.00
2018-11-02T15:50:11.211Z,101990.00
2018-11-02T15:52:40.490Z,101993.00
2018-11-02T15:55:10.613Z,101997.00
2018-11-02T15:57:39.458Z,102008.00
2018-11-02T16:00:15.362Z,102009.00
2018-11-02T16:02:45.867Z,102005.00
2018-11-02T16:05:14.696Z,102004.00
2018-11-02T16:07:43.564Z,101998.00
2018-11-02T16:10:12.657Z,101989.00
2018-11-02T16:12:42.244Z,101983.00
2018-11-02T16:15:12.277Z,101988.00
2018-11-02T16:17:41.093Z,101987.00
2018-11-02T16:20:12.091Z,101977.00
2018-11-02T16:22:41.204Z,101980.00
2018-11-02T16:25:10.046Z,101978.00
2018-11-02T16:27:38.941Z,101985.00
2018-11-02T16:30:09.633Z,101998.00
2018-11-02T16:32:38.324Z,102004.00
2018-11-02T16:35:09.304Z,102003.00
2018-11-02T16:37:38.147Z,102006.00
2018-11-02T16:40:10.858Z,102002.00
2018-11-02T16:42:40.210Z,101995.00
2018-11-02T16:45:10.755Z,102003.00
2018-11-02T16:47:39.869Z,102018.00
2018-11-02T16:50:10.316Z,102031.00
2018-11-02T16:52:39.073Z,102038.00
2018-11-02T16:55:08.374Z,102042.00
2018-11-02T16:57:37.513Z,102050.00
2018-11-02T17:00:12.427Z,102044.00
2018-11-02T17:02:41.587Z,102046.00
2018-11-02T17:05:11.121Z,102069.00
2018-11-02T17:07:40.587Z,102070.00
2018-11-02T17:10:10.728Z,102072.00
2018-11-02T17:12:40.110Z,102073.00
2018-11-02T17:15:09.423Z,102089.00
2018-11-02T17:17:41.227Z,102094.00
2018-11-02T17:20:12.922Z,102094.00
2018-11-02T17:22:41.808Z,102087.00
2018-11-02T17:25:11.647Z,102078.00
2018-11-02T17:27:40.822Z,102087.00
2018-11-02T17:30:12.831Z,102101.00
2018-11-02T17:32:41.762Z,102104.00
2018-11-02T17:35:11.299Z,102095.00
2018-11-02T17:37:40.145Z,102100.00
2018-11-02T17:40:12.185Z,102108.00
2018-11-02T17:42:41.546Z,102109.00
2018-11-02T17:45:10.402Z,102116.00
2018-11-02T17:47:40.141Z,102122.00
2018-11-02T17:50:11.459Z,102119.00
2018-11-02T17:52:40.294Z,102139.00
2018-11-02T17:55:09.138Z,102149.00
2018-11-02T17:57:37.994Z,102157.00
2018-11-02T18:00:10.770Z,102157.00
2018-11-02T18:02:39.737Z,102149.00
2018-11-02T18:05:09.197Z,102148.00
2018-11-02T18:07:38.640Z,102155.00
2018-11-02T18:10:11.406Z,102150.00
2018-11-02T18:12:40.538Z,102155.00
2018-11-02T18:15:09.877Z,102152.00
2018-11-02T18:17:38.721Z,102158.00
2018-11-02T18:20:11.298Z,102166.00
2018-11-02T18:22:40.523Z,102149.00
2018-11-02T18:25:09.798Z,102153.00
2018-11-02T18:27:38.674Z,102157.00
2018-11-02T18:30:10.660Z,102177.00
2018-11-02T18:32:39.658Z,102186.00
2018-11-02T18:35:09.536Z,102173.00
2018-11-02T18:37:38.274Z,102169.00
2018-11-02T18:40:10.758Z,102177.00
2018-11-02T18:42:39.665Z,102179.00
2018-11-02T18:45:11.586Z,102196.00
2018-11-02T18:47:45.710Z,102194.00
2018-11-02T18:50:16.336Z,102198.00
2018-11-02T18:52:45.627Z,102209.00
2018-11-02T18:55:14.567Z,102212.00
2018-11-02T18:57:43.387Z,102209.00
2018-11-02T19:00:12.647Z,102215.00
2018-11-02T19:02:41.715Z,102215.00
2018-11-02T19:05:13.569Z,102226.00
2018-11-02T19:07:43.220Z,102222.00
2018-11-02T19:10:12.476Z,102228.00
2018-11-02T19:12:41.772Z,102224.00
2018-11-02T19:15:13.556Z,102235.00
2018-11-02T19:17:42.626Z,102228.00
2018-11-02T19:20:12.255Z,102242.00
2018-11-02T19:22:41.270Z,102245.00
2018-11-02T19:25:11.662Z,102248.00
2018-11-02T19:27:40.561Z,102258.00
2018-11-02T19:30:11.194Z,102264.00
2018-11-02T19:32:40.066Z,102264.00
2018-11-02T19:35:09.984Z,102266.00
2018-11-02T19:37:38.652Z,102263.00
2018-11-02T19:40:11.134Z,102275.00
2018-11-02T19:42:40.068Z,102263.00
2018-11-02T19:45:09.909Z,102274.00
2018-11-02T19:47:44.076Z,102270.00
2018-11-02T19:50:14.346Z,102290.00
2018-11-02T19:52:43.178Z,102287.00
2018-11-02T19:55:12.972Z,102300.00
2018-11-02T19:57:43.010Z,102303.00
2018-11-02T20:00:13.570Z,102297.00
2018-11-02T20:02:42.941Z,102309.00
2018-11-02T20:05:14.181Z,102300.00
2018-11-02T20:07:43.549Z,102302.00
2018-11-02T20:10:13.274Z,102309.00
2018-11-02T20:12:42.600Z,102319.00
2018-11-02T20:15:12.357Z,102315.00
2018-11-02T20:17:41.689Z,102319.00
2018-11-02T20:20:12.300Z,102305.00
2018-11-02T20:22:41.105Z,102293.00
2018-11-02T20:25:12.683Z,102308.00
2018-11-02T20:27:41.526Z,102296.00
2018-11-02T20:30:13.530Z,102302.00
2018-11-02T20:32:42.943Z,102311.00
2018-11-02T20:35:11.777Z,102312.00
2018-11-02T20:37:40.743Z,102310.00
2018-11-02T20:40:12.672Z,102311.00
2018-11-02T20:42:42.759Z,102319.00
2018-11-02T20:45:11.642Z,102330.00
2018-11-02T20:47:45.757Z,102331.00
2018-11-02T20:50:14.643Z,102330.00
2018-11-02T20:52:43.499Z,102330.00
2018-11-02T20:55:13.280Z,102329.00
2018-11-02T20:57:42.587Z,102339.00
2018-11-02T21:00:15.078Z,102331.00
2018-11-02T21:02:44.485Z,102334.00
2018-11-02T21:05:15.329Z,102346.00
2018-11-02T21:07:45.216Z,102340.00
2018-11-02T21:10:15.254Z,102337.00
2018-11-02T21:12:44.121Z,102333.00
2018-11-02T21:15:16.113Z,102331.00
2018-11-02T21:17:44.974Z,102336.00
2018-11-02T21:20:15.167Z,102340.00
2018-11-02T21:22:44.235Z,102344.00
2018-11-02T21:25:13.714Z,102342.00
2018-11-02T21:27:43.211Z,102336.00
2018-11-02T21:30:16.219Z,102343.00
2018-11-02T21:32:45.793Z,102347.00
2018-11-02T21:35:15.148Z,102353.00
2018-11-02T21:37:44.152Z,102365.00
2018-11-02T21:40:14.347Z,102365.00
2018-11-02T21:42:44.510Z,102363.00
2018-11-02T21:45:14.735Z,102368.00
2018-11-02T21:47:43.986Z,102366.00
2018-11-02T21:50:13.382Z,102369.00
2018-11-02T21:52:42.295Z,102347.00
2018-11-02T21:55:11.130Z,102362.00
2018-11-02T21:57:40.022Z,102356.00
2018-11-02T22:00:13.842Z,102370.00
2018-11-02T22:02:42.658Z,102384.00
2018-11-02T22:05:12.570Z,102388.00
2018-11-02T22:07:42.178Z,102398.00
2018-11-02T22:10:12.129Z,102402.00
2018-11-02T22:12:41.811Z,102391.00
2018-11-02T22:15:11.722Z,102395.00
2018-11-02T22:17:41.440Z,102396.00
2018-11-02T22:20:12.289Z,102403.00
2018-11-02T22:22:41.458Z,102397.00
2018-11-02T22:25:11.373Z,102398.00
2018-11-02T22:27:40.230Z,102378.00
2018-11-02T22:30:12.126Z,102395.00
2018-11-02T22:32:41.242Z,102397.00
2018-11-02T22:35:10.630Z,102405.00
2018-11-02T22:37:39.590Z,102409.00
2018-11-02T22:40:10.291Z,102406.00
2018-11-02T22:42:39.442Z,102404.00
2018-11-02T22:45:09.766Z,102397.00
2018-11-02T22:47:38.636Z,102403.00
2018-11-02T22:55:06.613Z,102410.00
2018-11-02T22:57:35.454Z,102402.00
2018-11-02T23:00:07.786Z,102405.00
2018-11-02T23:02:36.598Z,102406.00
2018-11-02T23:05:05.924Z,102405.00
2018-11-02T23:07:34.767Z,102413.00
2018-11-02T23:10:04.326Z,102411.00
2018-11-02T23:12:33.626Z,102406.00
2018-11-02T23:15:02.487Z,102403.00
2018-11-02T23:17:31.397Z,102406.00
2018-11-02T23:20:00.215Z,102399.00
2018-11-02T23:22:29.155Z,102398.00
2018-11-02T23:24:57.975Z,102390.00
2018-11-02T23:27:26.799Z,102391.00
2018-11-02T23:29:55.689Z,102368.00
2018-11-02T23:32:24.457Z,102367.00
2018-11-02T23:34:53.303Z,102374.00
2018-11-02T23:37:22.137Z,102385.00
2018-11-02T23:39:50.950Z,102365.00
2018-11-02T23:42:19.781Z,102368.00
2018-11-02T23:44:49.140Z,102369.00
2018-11-02T23:47:17.910Z,102381.00
2018-11-02T23:49:46.818Z,102370.00
2018-11-02T23:52:15.711Z,102384.00
2018-11-02T23:54:44.530Z,102386.00
2018-11-02T23:57:13.341Z,102372.00
2018-11-02T23:59:42.226Z,102375.00
